Time;durP1;ratioP1;P1;durP2;ratioP2;P2;SDS_P1;SDS_P2;PMS_P1;PMS_P2;Temp;Humidity;BMP_temperature;BMP_pressure;BME280_temperature;BME280_humidity;BME280_pressure;Samples;Min_cycle;Max_cycle;Signal;HPM_P1;HPM_P2
2023/09/25 00:00:34;;;;;;;3.63;2.50;;;11.10;99.90;;;;;;5015355;28;20018;-85
2023/09/25 00:03:01;;;;;;;2.28;2.08;;;11.10;99.90;;;;;;5011703;28;20025;-84
2023/09/25 00:05:28;;;;;;;2.65;2.28;;;11.10;99.90;;;;;;5010385;28;20035;-84
2023/09/25 00:07:54;;;;;;;2.75;2.10;;;11.10;99.90;;;;;;5015159;28;20049;-84
2023/09/25 00:10:20;;;;;;;2.85;2.55;;;11.10;99.90;;;;;;5009106;28;20053;-84
2023/09/25 00:12:46;;;;;;;2.55;2.30;;;11.10;99.90;;;;;;5009617;28;20025;-82
2023/09/25 00:15:11;;;;;;;3.35;2.33;;;11.10;99.90;;;;;;5013421;28;20041;-84
2023/09/25 00:17:37;;;;;;;2.83;1.90;;;11.10;99.90;;;;;;5009122;28;20026;-83
2023/09/25 00:20:04;;;;;;;3.38;1.88;;;11.10;99.90;;;;;;5008317;28;20085;-84
2023/09/25 00:22:30;;;;;;;2.42;2.22;;;11.10;99.90;;;;;;5009843;28;20014;-84
2023/09/25 00:24:56;;;;;;;2.67;2.05;;;11.10;99.90;;;;;;5012588;28;20018;-85
2023/09/25 00:27:23;;;;;;;2.60;1.90;;;11.10;99.90;;;;;;5013288;28;20088;-84
2023/09/25 00:29:48;;;;;;;2.28;2.08;;;11.10;99.90;;;;;;5004107;28;20042;-84
2023/09/25 00:32:14;;;;;;;2.20;2.00;;;11.10;99.90;;;;;;5011454;28;20029;-84
2023/09/25 00:34:40;;;;;;;2.50;2.22;;;11.10;99.90;;;;;;5026358;28;20025;-85
2023/09/25 00:37:06;;;;;;;3.42;2.47;;;11.20;99.90;;;;;;5000861;28;20018;-84
2023/09/25 00:39:31;;;;;;;2.70;2.33;;;11.20;99.90;;;;;;5018791;28;20020;-83
2023/09/25 00:41:58;;;;;;;2.90;2.40;;;11.20;99.90;;;;;;5013024;28;20172;-84
2023/09/25 00:44:24;;;;;;;2.83;2.45;;;11.20;99.90;;;;;;5015876;28;20104;-84
2023/09/25 00:46:49;;;;;;;3.85;2.30;;;11.20;99.90;;;;;;5024397;28;20037;-84
2023/09/25 00:49:15;;;;;;;2.00;1.80;;;11.20;99.90;;;;;;5013890;28;20026;-85
2023/09/25 00:51:42;;;;;;;5.63;2.40;;;11.10;99.90;;;;;;5015878;28;20032;-84
2023/09/25 00:54:08;;;;;;;2.50;2.13;;;11.10;99.90;;;;;;5012913;28;20109;-85
2023/09/25 00:56:34;;;;;;;3.55;2.00;;;11.10;99.90;;;;;;5011714;28;20045;-84
2023/09/25 00:59:00;;;;;;;2.00;1.77;;;11.10;99.90;;;;;;5013236;28;20033;-84
2023/09/25 01:01:26;;;;;;;3.78;2.28;;;11.10;99.90;;;;;;4998775;28;20026;-84
2023/09/25 01:03:52;;;;;;;3.53;2.55;;;11.10;99.90;;;;;;5007335;28;20084;-85
2023/09/25 01:06:18;;;;;;;3.50;2.08;;;11.10;99.90;;;;;;5011565;28;20061;-83
2023/09/25 01:08:43;;;;;;;3.83;1.85;;;11.10;99.90;;;;;;5008333;28;20029;-83
2023/09/25 01:11:10;;;;;;;3.47;2.50;;;11.00;99.90;;;;;;5012663;28;20030;-84
2023/09/25 01:13:35;;;;;;;2.35;2.10;;;11.00;99.90;;;;;;5013607;28;20056;-84
2023/09/25 01:16:02;;;;;;;2.40;2.20;;;11.00;99.90;;;;;;5008880;28;20025;-84
2023/09/25 01:18:28;;;;;;;2.55;2.35;;;11.00;99.90;;;;;;5006823;28;20853;-84
2023/09/25 01:20:53;;;;;;;2.70;2.38;;;11.00;99.90;;;;;;5009703;28;20026;-85
2023/09/25 01:23:19;;;;;;;2.28;2.08;;;11.00;99.90;;;;;;5010939;28;20045;-84
2023/09/25 01:25:44;;;;;;;3.38;2.42;;;11.00;99.90;;;;;;5004269;28;20471;-84
2023/09/25 01:28:10;;;;;;;4.35;2.58;;;11.00;99.90;;;;;;5011968;28;20106;-84
2023/09/25 01:30:36;;;;;;;4.43;2.30;;;11.00;99.90;;;;;;5010743;28;20662;-83
2023/09/25 01:33:01;;;;;;;2.65;2.08;;;11.00;99.90;;;;;;5004189;28;20018;-83
2023/09/25 01:35:27;;;;;;;2.95;2.28;;;10.90;99.90;;;;;;4997990;28;20022;-83
2023/09/25 01:38:00;;;;;;;2.78;2.20;;;10.90;99.90;;;;;;5005084;28;20278;-84
2023/09/25 01:40:26;;;;;;;3.65;2.45;;;10.90;99.90;;;;;;5005456;28;20026;-84
2023/09/25 01:42:52;;;;;;;2.28;2.08;;;10.90;99.90;;;;;;5011998;28;20028;-84
2023/09/25 01:45:19;;;;;;;2.65;2.40;;;10.90;99.90;;;;;;5005334;28;20125;-84
2023/09/25 01:47:49;;;;;;;3.05;2.50;;;10.80;99.90;;;;;;5002765;28;20030;-84
2023/09/25 01:50:20;;;;;;;2.60;2.40;;;10.80;99.90;;;;;;5011146;28;20022;-85
2023/09/25 01:52:49;;;;;;;3.15;2.35;;;10.80;99.90;;;;;;5009675;28;20117;-84
2023/09/25 01:55:15;;;;;;;3.13;2.70;;;10.80;99.90;;;;;;5009726;28;20025;-83
2023/09/25 01:57:41;;;;;;;2.78;2.53;;;10.80;99.90;;;;;;5015281;28;20025;-84
2023/09/25 02:00:10;;;;;;;2.58;2.38;;;10.80;99.90;;;;;;5011123;28;20434;-84
2023/09/25 02:02:42;;;;;;;3.33;2.40;;;10.80;99.90;;;;;;5014003;28;20079;-84
2023/09/25 02:05:08;;;;;;;3.22;2.15;;;10.80;99.90;;;;;;5004702;28;20056;-84
2023/09/25 02:07:34;;;;;;;2.78;2.58;;;10.70;99.90;;;;;;5014005;28;20399;-84
2023/09/25 02:09:59;;;;;;;3.15;2.60;;;10.70;99.90;;;;;;5008244;28;20026;-84
2023/09/25 02:12:25;;;;;;;2.53;2.33;;;10.70;99.90;;;;;;5012213;28;20076;-85
2023/09/25 02:14:54;;;;;;;2.65;2.45;;;10.70;99.90;;;;;;5011849;28;20018;-84
2023/09/25 02:17:20;;;;;;;2.30;2.15;;;10.70;99.90;;;;;;5004812;28;20458;-84
2023/09/25 02:19:46;;;;;;;6.70;2.10;;;10.70;99.90;;;;;;5011281;28;20536;-85
2023/09/25 02:22:12;;;;;;;2.85;2.47;;;10.60;99.90;;;;;;5001344;28;20030;-84
2023/09/25 02:24:39;;;;;;;2.42;2.17;;;10.60;99.90;;;;;;5014092;28;20057;-84
2023/09/25 02:27:05;;;;;;;5.25;2.30;;;10.60;99.90;;;;;;5016141;28;20018;-83
2023/09/25 02:29:30;;;;;;;3.75;2.42;;;10.60;99.90;;;;;;5011039;28;20060;-84
2023/09/25 02:31:56;;;;;;;5.32;2.38;;;10.60;99.90;;;;;;5011843;28;20023;-85
2023/09/25 02:34:22;;;;;;;2.65;2.03;;;10.60;99.90;;;;;;5005354;28;20638;-83
2023/09/25 02:36:47;;;;;;;2.85;2.10;;;10.60;99.90;;;;;;5010675;28;20076;-84
2023/09/25 02:39:13;;;;;;;2.22;1.92;;;10.50;99.90;;;;;;5009753;28;20027;-84
2023/09/25 02:41:39;;;;;;;2.95;2.53;;;10.60;99.90;;;;;;5016585;28;20083;-84
2023/09/25 02:44:05;;;;;;;2.70;2.13;;;10.50;99.90;;;;;;5003497;28;20030;-85
2023/09/25 02:46:31;;;;;;;2.65;2.35;;;10.50;99.90;;;;;;5006881;28;20625;-84
2023/09/25 02:48:57;;;;;;;2.97;2.28;;;10.50;99.90;;;;;;5020833;28;20044;-84
2023/09/25 02:51:22;;;;;;;2.45;2.10;;;10.50;99.90;;;;;;5023652;28;20029;-84
2023/09/25 02:53:48;;;;;;;2.58;2.38;;;10.60;99.90;;;;;;5014813;28;20061;-84
2023/09/25 02:56:14;;;;;;;4.22;2.58;;;10.50;99.90;;;;;;5029511;28;20023;-85
2023/09/25 02:58:39;;;;;;;2.38;2.17;;;10.50;99.90;;;;;;5024630;28;20036;-84
2023/09/25 03:01:05;;;;;;;2.90;2.58;;;10.50;99.90;;;;;;5016667;28;20436;-84
2023/09/25 03:03:30;;;;;;;2.55;2.35;;;10.50;99.90;;;;;;5021329;28;20120;-86
2023/09/25 03:05:56;;;;;;;4.43;2.50;;;10.50;99.90;;;;;;5011846;28;20026;-84
2023/09/25 03:08:22;;;;;;;2.63;2.15;;;10.50;99.90;;;;;;5017600;28;20067;-84
2023/09/25 03:10:47;;;;;;;2.60;2.40;;;10.40;99.90;;;;;;5015508;28;20081;-84
2023/09/25 03:13:13;;;;;;;4.13;2.60;;;10.40;99.90;;;;;;5013918;28;20758;-85
2023/09/25 03:15:39;;;;;;;3.00;2.15;;;10.40;99.90;;;;;;5027078;28;20101;-85
2023/09/25 03:18:05;;;;;;;4.20;2.58;;;10.40;99.90;;;;;;5016339;28;20029;-86
2023/09/25 03:20:30;;;;;;;3.50;2.70;;;10.40;99.90;;;;;;5015518;28;20048;-87
2023/09/25 03:22:56;;;;;;;2.35;2.15;;;10.40;99.90;;;;;;5009368;28;20062;-85
2023/09/25 03:25:22;;;;;;;2.53;2.30;;;10.40;99.90;;;;;;5012658;28;20030;-87
2023/09/25 03:27:49;;;;;;;3.75;2.45;;;10.40;99.90;;;;;;5010173;28;20572;-85
2023/09/25 03:30:15;;;;;;;3.15;2.38;;;10.40;99.90;;;;;;5018954;28;20548;-85
2023/09/25 03:32:41;;;;;;;2.92;2.53;;;10.40;99.90;;;;;;5007572;28;20025;-85
2023/09/25 03:35:07;;;;;;;2.88;2.30;;;10.40;99.90;;;;;;5023158;28;20501;-84
2023/09/25 03:37:33;;;;;;;2.78;2.58;;;10.40;99.90;;;;;;5013077;28;20037;-86
2023/09/25 03:39:58;;;;;;;3.10;2.75;;;10.30;99.90;;;;;;5021523;28;20498;-84
2023/09/25 03:42:24;;;;;;;2.47;2.28;;;10.30;99.90;;;;;;5018210;28;20607;-84
2023/09/25 03:44:51;;;;;;;2.40;2.20;;;10.30;99.90;;;;;;5019308;28;20029;-84
2023/09/25 03:47:18;;;;;;;3.50;2.58;;;10.30;99.90;;;;;;5016858;28;20022;-86
2023/09/25 03:49:44;;;;;;;3.25;2.90;;;10.30;99.90;;;;;;5025139;28;20070;-85
2023/09/25 03:52:09;;;;;;;2.72;2.53;;;10.30;99.90;;;;;;5018895;28;20021;-84
2023/09/25 03:54:35;;;;;;;3.15;2.50;;;10.30;99.90;;;;;;5005659;28;20028;-85
2023/09/25 03:57:00;;;;;;;2.88;2.63;;;10.30;99.90;;;;;;5005379;28;20424;-85
2023/09/25 03:59:26;;;;;;;2.28;2.08;;;10.30;99.90;;;;;;5012579;28;20018;-85
2023/09/25 04:01:51;;;;;;;2.92;2.53;;;10.30;99.90;;;;;;5004131;28;20095;-85
2023/09/25 04:04:17;;;;;;;2.50;2.30;;;10.30;99.90;;;;;;5018086;28;20025;-85
2023/09/25 04:06:42;;;;;;;2.83;2.63;;;10.30;99.90;;;;;;5009199;28;20034;-85
2023/09/25 04:09:08;;;;;;;3.30;3.00;;;10.20;99.90;;;;;;5012379;28;20022;-86
2023/09/25 04:11:34;;;;;;;3.50;2.30;;;10.20;99.90;;;;;;5008070;28;20036;-85
2023/09/25 04:14:01;;;;;;;2.30;2.08;;;10.20;99.90;;;;;;5014727;28;20050;-84
2023/09/25 04:16:33;;;;;;;2.95;2.47;;;10.20;99.90;;;;;;5012188;28;20033;-85
2023/09/25 04:18:58;;;;;;;3.00;2.75;;;10.10;99.90;;;;;;5012911;28;20022;-84
2023/09/25 04:21:24;;;;;;;6.10;2.80;;;10.20;99.90;;;;;;5010452;28;20037;-84
2023/09/25 04:23:49;;;;;;;3.00;2.75;;;10.10;99.90;;;;;;5013437;28;20121;-85
2023/09/25 04:26:16;;;;;;;3.55;2.95;;;10.10;99.90;;;;;;5017782;28;20049;-84
2023/09/25 04:28:42;;;;;;;2.60;2.40;;;10.10;99.90;;;;;;5012138;28;20041;-84
2023/09/25 04:31:08;;;;;;;3.20;2.33;;;10.10;99.90;;;;;;5012597;28;20022;-86
2023/09/25 04:33:35;;;;;;;2.80;2.47;;;10.10;99.90;;;;;;5008687;28;20422;-84
2023/09/25 04:36:01;;;;;;;4.35;2.90;;;10.00;99.90;;;;;;5015342;28;20033;-85
2023/09/25 04:38:27;;;;;;;3.28;2.75;;;10.00;99.90;;;;;;5019113;28;20017;-84
2023/09/25 04:40:54;;;;;;;2.97;2.75;;;10.00;99.90;;;;;;5008279;28;20034;-84
2023/09/25 04:43:20;;;;;;;2.80;2.55;;;9.90;99.90;;;;;;5011619;28;20032;-84
2023/09/25 04:45:46;;;;;;;3.03;2.72;;;10.00;99.90;;;;;;5009782;28;20090;-85
2023/09/25 04:48:13;;;;;;;4.57;3.58;;;9.90;99.90;;;;;;5011135;28;20029;-84
2023/09/25 04:50:40;;;;;;;3.90;2.60;;;9.90;99.90;;;;;;5009756;28;20532;-85
2023/09/25 04:53:08;;;;;;;2.78;2.58;;;9.90;99.90;;;;;;5007704;28;20026;-85
2023/09/25 04:55:34;;;;;;;4.75;2.85;;;9.90;99.90;;;;;;5016501;28;20034;-85
2023/09/25 04:57:59;;;;;;;3.00;2.70;;;9.90;99.90;;;;;;5014382;28;20033;-85
2023/09/25 05:00:26;;;;;;;3.05;2.80;;;9.90;99.90;;;;;;5007858;28;20110;-84
2023/09/25 05:02:54;;;;;;;2.63;2.42;;;9.90;99.90;;;;;;5008249;28;20029;-84
2023/09/25 05:05:20;;;;;;;3.58;3.28;;;9.90;99.90;;;;;;5019711;28;20025;-85
2023/09/25 05:07:47;;;;;;;4.00;3.00;;;9.90;99.90;;;;;;5011884;28;20034;-85
2023/09/25 05:10:14;;;;;;;3.67;3.20;;;9.90;99.90;;;;;;5016266;28;20045;-84
2023/09/25 05:12:41;;;;;;;3.28;2.97;;;9.90;99.90;;;;;;5017143;28;20029;-86
2023/09/25 05:15:08;;;;;;;5.38;3.72;;;9.90;99.90;;;;;;5005877;28;20022;-85
2023/09/25 05:17:39;;;;;;;3.78;3.30;;;9.90;99.90;;;;;;5009910;28;20021;-85
2023/09/25 05:20:15;;;;;;;3.60;3.03;;;9.90;99.90;;;;;;5016064;28;20109;-85
2023/09/25 05:22:42;;;;;;;3.42;3.13;;;9.90;99.90;;;;;;5001590;28;20045;-85
2023/09/25 05:25:09;;;;;;;4.70;2.90;;;9.90;99.90;;;;;;5010786;28;20032;-85
2023/09/25 05:27:36;;;;;;;3.85;2.83;;;9.90;99.90;;;;;;5008510;28;20022;-84
2023/09/25 05:30:03;;;;;;;4.97;3.08;;;9.90;99.90;;;;;;5007098;28;20014;-85
2023/09/25 05:32:29;;;;;;;6.20;3.22;;;9.90;99.90;;;;;;5009664;28;20022;-85
2023/09/25 05:34:54;;;;;;;3.92;3.63;;;9.90;99.90;;;;;;5006536;28;20032;-83
2023/09/25 05:37:20;;;;;;;3.97;3.53;;;9.90;99.90;;;;;;5011291;28;20493;-83
2023/09/25 05:39:45;;;;;;;3.97;3.50;;;10.00;99.90;;;;;;5009349;28;20027;-84
2023/09/25 05:42:11;;;;;;;3.35;3.00;;;10.00;99.90;;;;;;5013782;28;20017;-84
2023/09/25 05:44:36;;;;;;;4.20;3.80;;;10.00;99.90;;;;;;5014821;28;20021;-84
2023/09/25 05:47:02;;;;;;;3.70;3.40;;;10.00;99.90;;;;;;5008984;28;20032;-85
2023/09/25 05:49:28;;;;;;;3.95;3.35;;;10.00;99.90;;;;;;5009849;28;20026;-84
2023/09/25 05:51:53;;;;;;;3.65;3.35;;;10.00;99.90;;;;;;5017138;28;20752;-85
2023/09/25 05:54:20;;;;;;;3.72;3.42;;;10.10;99.90;;;;;;5014799;28;20048;-84
2023/09/25 05:56:46;;;;;;;3.72;3.40;;;10.10;99.90;;;;;;5009080;28;20033;-84
2023/09/25 05:59:11;;;;;;;4.20;3.58;;;10.10;99.90;;;;;;5005888;28;20128;-84
2023/09/25 06:01:37;;;;;;;6.05;3.28;;;10.10;99.90;;;;;;5012369;28;20082;-87
2023/09/25 06:04:03;;;;;;;3.60;3.30;;;10.20;99.90;;;;;;5016480;28;20509;-87
2023/09/25 06:06:28;;;;;;;3.80;3.47;;;10.20;99.90;;;;;;5029245;28;20071;-86
2023/09/25 06:08:54;;;;;;;3.58;3.25;;;10.30;99.90;;;;;;5020654;28;20026;-86
2023/09/25 06:11:19;;;;;;;3.65;3.17;;;10.30;99.90;;;;;;5019061;28;20032;-86
2023/09/25 06:13:45;;;;;;;5.22;3.65;;;10.30;99.90;;;;;;5025927;28;20105;-86
2023/09/25 06:16:12;;;;;;;4.20;3.05;;;10.40;99.90;;;;;;5018104;28;20022;-86
2023/09/25 06:18:38;;;;;;;3.90;3.58;;;10.40;99.90;;;;;;5017430;28;20010;-85
2023/09/25 06:21:03;;;;;;;3.53;3.08;;;10.40;99.90;;;;;;5012374;28;20059;-86
2023/09/25 06:23:30;;;;;;;3.72;3.38;;;10.50;99.90;;;;;;5010541;28;20030;-86
2023/09/25 06:25:56;;;;;;;4.20;3.08;;;10.50;99.90;;;;;;5012503;28;20445;-85
2023/09/25 06:28:24;;;;;;;4.93;3.33;;;10.50;99.90;;;;;;5026719;28;20022;-86
2023/09/25 06:30:49;;;;;;;3.45;3.10;;;10.60;99.90;;;;;;5020145;28;20037;-87
2023/09/25 06:33:15;;;;;;;3.70;2.90;;;10.60;99.90;;;;;;5026634;28;20040;-86
2023/09/25 06:35:40;;;;;;;4.13;3.25;;;10.60;99.90;;;;;;5028093;28;20101;-86
2023/09/25 06:38:06;;;;;;;4.03;3.38;;;10.70;99.90;;;;;;5021148;28;20164;-86
2023/09/25 06:40:31;;;;;;;3.85;2.97;;;10.70;99.90;;;;;;5026839;28;20086;-86
2023/09/25 06:42:57;;;;;;;3.65;3.35;;;10.80;99.90;;;;;;5016663;28;20670;-86
2023/09/25 06:45:22;;;;;;;3.53;3.22;;;10.80;99.90;;;;;;5011810;28;20022;-86
2023/09/25 06:47:48;;;;;;;3.28;2.97;;;10.90;99.90;;;;;;5017789;28;20064;-85
2023/09/25 06:50:15;;;;;;;3.55;3.25;;;10.90;99.90;;;;;;5021239;28;20092;-86
2023/09/25 06:52:40;;;;;;;3.05;2.85;;;11.00;99.90;;;;;;5006989;28;20034;-87
2023/09/25 06:55:06;;;;;;;3.92;3.50;;;11.00;99.90;;;;;;5024644;28;20074;-86
2023/09/25 06:57:32;;;;;;;3.63;3.25;;;11.10;99.90;;;;;;5013855;28;20034;-86
2023/09/25 06:59:58;;;;;;;3.30;2.85;;;11.20;99.90;;;;;;5006231;28;20037;-84
2023/09/25 07:02:25;;;;;;;3.60;3.30;;;11.30;99.90;;;;;;5007598;28;20026;-86
2023/09/25 07:04:51;;;;;;;3.30;3.00;;;11.30;99.90;;;;;;5013982;28;20018;-85
2023/09/25 07:07:16;;;;;;;4.22;3.10;;;11.40;99.90;;;;;;5014254;28;20053;-86
2023/09/25 07:09:42;;;;;;;3.00;2.80;;;11.40;99.90;;;;;;5004922;28;20046;-84
2023/09/25 07:12:08;;;;;;;4.22;2.97;;;11.50;99.90;;;;;;5009258;28;20060;-86
2023/09/25 07:14:34;;;;;;;5.05;3.20;;;11.50;99.90;;;;;;5028774;28;20030;-85
2023/09/25 07:16:59;;;;;;;3.53;2.75;;;11.70;99.90;;;;;;5021767;28;20022;-88
2023/09/25 07:19:25;;;;;;;2.97;2.78;;;11.70;99.90;;;;;;5017813;28;20049;-87
2023/09/25 07:21:50;;;;;;;3.10;2.80;;;11.80;99.90;;;;;;5019939;28;20077;-87
2023/09/25 07:24:16;;;;;;;2.97;2.72;;;11.90;99.90;;;;;;5025195;28;20029;-86
2023/09/25 07:26:43;;;;;;;4.22;2.33;;;12.00;99.90;;;;;;5015478;28;20033;-85
2023/09/25 07:29:10;;;;;;;3.22;2.33;;;12.10;99.90;;;;;;5025065;28;20116;-87
2023/09/25 07:31:35;;;;;;;3.00;2.65;;;12.20;99.90;;;;;;5022101;28;20032;-85
2023/09/25 07:34:01;;;;;;;2.83;2.63;;;12.30;99.90;;;;;;5026770;28;20112;-85
2023/09/25 07:36:27;;;;;;;2.92;2.63;;;12.30;99.90;;;;;;5019259;28;20036;-86
2023/09/25 07:38:52;;;;;;;4.75;2.90;;;12.50;99.90;;;;;;5010943;28;20026;-87
2023/09/25 07:41:18;;;;;;;2.58;2.38;;;12.60;99.90;;;;;;5013701;28;20025;-86
2023/09/25 07:43:44;;;;;;;4.05;2.85;;;12.70;99.90;;;;;;5014876;28;20042;-85
2023/09/25 07:46:10;;;;;;;2.78;2.28;;;12.90;99.90;;;;;;5005307;28;20018;-86
2023/09/25 07:48:38;;;;;;;2.40;2.20;;;12.90;99.90;;;;;;5007617;28;20053;-87
2023/09/25 07:51:07;;;;;;;2.53;2.13;;;13.10;99.90;;;;;;5018258;28;20029;-85
2023/09/25 07:53:39;;;;;;;3.58;1.77;;;13.20;99.90;;;;;;5014747;28;20050;-85
2023/09/25 07:56:05;;;;;;;2.60;2.40;;;13.20;99.90;;;;;;5000303;28;20021;-87
2023/09/25 07:58:32;;;;;;;2.15;1.95;;;13.30;99.90;;;;;;5002311;28;20113;-85
2023/09/25 08:01:01;;;;;;;1.92;1.83;;;13.40;99.90;;;;;;5006938;28;20159;-86
2023/09/25 08:03:26;;;;;;;2.00;1.80;;;13.60;99.90;;;;;;5021199;28;20018;-85
2023/09/25 08:05:53;;;;;;;3.97;2.17;;;13.70;99.90;;;;;;5019033;28;20026;-85
2023/09/25 08:08:19;;;;;;;2.28;2.08;;;13.90;99.90;;;;;;5027142;28;20030;-85
2023/09/25 08:10:47;;;;;;;2.83;2.00;;;14.00;99.90;;;;;;5020565;28;20482;-85
2023/09/25 08:13:13;;;;;;;3.17;1.98;;;14.10;99.90;;;;;;5015304;28;20121;-87
2023/09/25 08:15:38;;;;;;;2.63;2.42;;;14.20;99.90;;;;;;5013732;28;20088;-86
2023/09/25 08:18:04;;;;;;;3.78;1.75;;;14.40;99.90;;;;;;5026027;28;20048;-85
2023/09/25 08:20:30;;;;;;;2.55;2.25;;;14.40;99.90;;;;;;5015697;28;20475;-85
2023/09/25 08:22:56;;;;;;;3.75;2.13;;;14.60;99.90;;;;;;5018419;28;20030;-87
2023/09/25 08:25:22;;;;;;;2.15;1.63;;;14.70;99.90;;;;;;5023427;28;20017;-85
2023/09/25 08:27:51;;;;;;;1.80;1.60;;;14.80;99.90;;;;;;5024699;28;20052;-86
2023/09/25 08:30:18;;;;;;;3.58;2.30;;;14.90;99.90;;;;;;5018102;28;20038;-85
2023/09/25 08:32:47;;;;;;;1.70;1.60;;;15.00;99.90;;;;;;5009546;28;20072;-85
2023/09/25 08:35:12;;;;;;;2.38;1.70;;;15.10;99.90;;;;;;5021685;28;20033;-85
2023/09/25 08:37:38;;;;;;;2.17;1.48;;;15.20;99.90;;;;;;5013494;28;20359;-84
2023/09/25 08:40:05;;;;;;;1.83;1.42;;;15.30;99.90;;;;;;5005769;28;20032;-86
2023/09/25 08:42:31;;;;;;;1.70;1.60;;;15.40;99.90;;;;;;5019046;28;20028;-86
2023/09/25 08:45:00;;;;;;;2.40;1.90;;;15.40;99.90;;;;;;5012515;28;20042;-86
2023/09/25 08:47:28;;;;;;;1.77;1.58;;;15.50;99.90;;;;;;5010430;28;20026;-86
2023/09/25 08:49:55;;;;;;;2.45;1.88;;;15.50;99.90;;;;;;5013604;28;20441;-86
2023/09/25 08:52:22;;;;;;;4.05;2.42;;;15.50;99.90;;;;;;5016843;28;20048;-86
2023/09/25 08:54:48;;;;;;;2.17;1.75;;;15.60;99.90;;;;;;5017421;28;20033;-84
2023/09/25 08:57:15;;;;;;;3.03;1.63;;;15.70;99.90;;;;;;5017360;28;20030;-86
2023/09/25 08:59:44;;;;;;;1.67;1.45;;;15.80;99.90;;;;;;5016375;28;20014;-85
2023/09/25 09:02:11;;;;;;;3.88;1.63;;;15.90;99.90;;;;;;5017385;28;20075;-86
2023/09/25 09:04:36;;;;;;;1.83;1.52;;;15.90;99.90;;;;;;5016824;28;20526;-85
2023/09/25 09:07:06;;;;;;;1.92;1.83;;;16.00;99.90;;;;;;5027662;28;20487;-86
2023/09/25 09:09:32;;;;;;;2.50;1.70;;;16.10;99.90;;;;;;5019912;28;20021;-85
2023/09/25 09:11:58;;;;;;;2.00;1.35;;;16.20;99.90;;;;;;5015055;28;20071;-84
2023/09/25 09:14:34;;;;;;;1.95;1.58;;;16.20;99.90;;;;;;5016343;28;20021;-85
2023/09/25 09:17:00;;;;;;;;;;;16.30;99.90;;;;;;5020162;28;20026;-89
2023/09/25 09:19:25;;;;;;;2.05;1.33;;;16.40;99.90;;;;;;5010142;28;19906;-85
2023/09/25 09:22:08;;;;;;;1.85;1.17;;;16.50;99.90;;;;;;5018880;28;20052;-86
2023/09/25 09:24:37;;;;;;;1.60;1.50;;;16.60;99.90;;;;;;5009558;28;20031;-83
2023/09/25 09:27:07;;;;;;;3.03;1.58;;;16.70;99.90;;;;;;5019547;28;20026;-87
2023/09/25 09:29:35;;;;;;;1.92;1.27;;;16.80;99.90;;;;;;5028929;28;20017;-85
2023/09/25 09:32:01;;;;;;;1.65;1.50;;;16.80;99.90;;;;;;5025897;28;20032;-85
2023/09/25 09:34:26;;;;;;;1.40;1.30;;;16.90;99.90;;;;;;5016534;28;20026;-85
2023/09/25 09:36:52;;;;;;;1.48;1.33;;;17.00;99.90;;;;;;5009611;28;20105;-83
2023/09/25 09:39:25;;;;;;;1.70;1.30;;;17.00;99.90;;;;;;5026173;28;20018;-85
2023/09/25 09:41:52;;;;;;;3.22;1.33;;;17.10;99.90;;;;;;5016537;28;20029;-86
2023/09/25 09:44:19;;;;;;;2.17;1.20;;;17.10;99.90;;;;;;5008581;28;20028;-85
2023/09/25 09:46:50;;;;;;;2.05;1.67;;;17.10;99.90;;;;;;5014447;28;20097;-85
2023/09/25 09:49:21;;;;;;;1.67;1.27;;;17.10;99.90;;;;;;5012846;28;20030;-84
2023/09/25 09:51:48;;;;;;;1.40;1.30;;;17.10;99.90;;;;;;5000986;28;20076;-85
2023/09/25 09:54:16;;;;;;;1.45;1.35;;;17.20;99.90;;;;;;5004720;28;20068;-85
2023/09/25 09:56:42;;;;;;;2.78;1.38;;;17.20;99.90;;;;;;5000062;28;20026;-84
2023/09/25 09:59:10;;;;;;;1.30;1.20;;;17.20;99.90;;;;;;5000917;28;20018;-81
2023/09/25 10:01:36;;;;;;;2.25;1.08;;;17.30;99.90;;;;;;4998344;28;20027;-84
2023/09/25 10:04:03;;;;;;;2.20;1.63;;;17.20;99.90;;;;;;5012643;28;20079;-83
2023/09/25 10:06:29;;;;;;;2.42;1.20;;;17.30;99.90;;;;;;4997580;28;20558;-80
2023/09/25 10:09:10;;;;;;;1.50;1.40;;;17.40;99.90;;;;;;5002584;28;20050;-85
2023/09/25 10:11:36;;;;;;;2.30;1.80;;;17.40;99.90;;;;;;5007261;28;20124;-84
2023/09/25 10:14:03;;;;;;;1.40;1.20;;;17.50;99.90;;;;;;4997211;28;20588;-85
2023/09/25 10:16:30;;;;;;;2.33;1.55;;;17.50;99.90;;;;;;5004775;28;20100;-84
2023/09/25 10:18:56;;;;;;;0.98;0.95;;;17.60;99.90;;;;;;5003251;28;20589;-85
2023/09/25 10:21:21;;;;;;;2.58;1.40;;;17.60;99.90;;;;;;5003604;28;20042;-86
2023/09/25 10:23:54;;;;;;;1.23;1.13;;;17.60;99.90;;;;;;5000032;28;20587;-84
2023/09/25 10:26:22;;;;;;;1.40;1.30;;;17.60;99.90;;;;;;5013468;28;20084;-84
2023/09/25 10:29:19;;;;;;;2.63;1.27;;;17.70;99.90;;;;;;5004322;28;20390;-84
2023/09/25 10:31:48;;;;;;;1.35;1.23;;;17.70;99.90;;;;;;5006148;28;20026;-85
2023/09/25 10:34:14;;;;;;;1.58;1.30;;;17.80;99.90;;;;;;5013969;28;20052;-85
2023/09/25 10:36:42;;;;;;;2.90;1.23;;;17.90;99.90;;;;;;5010021;28;20664;-84
2023/09/25 10:39:15;;;;;;;1.20;0.95;;;17.90;99.90;;;;;;5001903;28;20038;-86
2023/09/25 10:41:42;;;;;;;2.67;1.08;;;17.90;99.90;;;;;;5013396;28;20129;-84
2023/09/25 10:44:11;;;;;;;1.70;1.13;;;18.00;99.90;;;;;;5017774;28;20065;-84
2023/09/25 10:46:40;;;;;;;1.30;1.13;;;18.10;99.90;;;;;;5005267;28;20080;-84
2023/09/25 10:49:06;;;;;;;1.50;1.20;;;18.10;99.90;;;;;;5014292;28;20034;-84
2023/09/25 10:51:33;;;;;;;1.20;1.08;;;18.10;99.90;;;;;;5007417;28;20564;-86
2023/09/25 10:54:03;;;;;;;2.60;1.20;;;18.20;99.90;;;;;;5007604;28;20081;-87
2023/09/25 10:56:30;;;;;;;1.63;1.10;;;18.20;99.90;;;;;;5004943;28;20112;-83
2023/09/25 10:58:56;;;;;;;1.30;0.95;;;18.20;99.90;;;;;;5030273;28;20019;-84
2023/09/25 11:01:30;;;;;;;1.05;0.90;;;18.20;99.90;;;;;;5011310;28;20033;-85
2023/09/25 11:03:59;;;;;;;1.70;1.20;;;18.20;99.90;;;;;;5013251;28;20493;-84
2023/09/25 11:06:25;;;;;;;1.13;1.00;;;18.30;99.90;;;;;;5001550;28;20022;-84
2023/09/25 11:09:05;;;;;;;2.47;1.15;;;18.30;99.90;;;;;;5007263;28;20040;-87
2023/09/25 11:11:31;;;;;;;1.60;0.93;;;18.40;99.90;;;;;;5014704;28;20411;-85
2023/09/25 11:13:58;;;;;;;2.03;1.63;;;18.40;99.90;;;;;;5010099;28;20029;-83
2023/09/25 11:16:24;;;;;;;2.97;1.08;;;18.50;99.90;;;;;;5019160;28;20025;-84
2023/09/25 11:19:10;;;;;;;1.05;0.90;;;18.60;99.90;;;;;;5016952;28;20045;-84
2023/09/25 11:21:37;;;;;;;1.85;1.10;;;18.60;99.90;;;;;;5012161;28;20087;-84
2023/09/25 11:24:10;;;;;;;1.98;1.00;;;18.70;99.90;;;;;;5008683;28;20037;-86
2023/09/25 11:26:36;;;;;;;1.75;1.15;;;18.70;99.90;;;;;;5011133;28;20029;-83
2023/09/25 11:29:08;;;;;;;2.13;1.10;;;18.70;99.90;;;;;;5000034;28;20312;-83
2023/09/25 11:31:35;;;;;;;1.83;1.30;;;18.80;99.90;;;;;;5007113;28;20616;-85
2023/09/25 11:34:01;;;;;;;2.35;1.45;;;18.80;99.90;;;;;;5007163;28;20056;-85
2023/09/25 11:36:27;;;;;;;1.65;1.17;;;18.80;99.90;;;;;;5003410;28;20279;-84
2023/09/25 11:38:52;;;;;;;4.97;1.17;;;18.90;99.90;;;;;;5013201;28;20074;-85
2023/09/25 11:41:18;;;;;;;1.23;1.00;;;18.90;99.90;;;;;;5011951;28;20498;-85
2023/09/25 11:43:43;;;;;;;2.03;1.15;;;18.90;99.90;;;;;;5012029;28;20089;-85
2023/09/25 11:46:09;;;;;;;1.92;1.27;;;19.00;99.90;;;;;;5016455;28;20488;-86
2023/09/25 11:48:38;;;;;;;1.92;1.13;;;19.00;99.90;;;;;;5012663;28;20509;-88
2023/09/25 11:51:03;;;;;;;3.03;1.40;;;19.00;99.90;;;;;;5015438;28;20056;-83
2023/09/25 11:53:29;;;;;;;2.13;1.20;;;19.00;99.90;;;;;;5009637;28;20593;-84
2023/09/25 11:55:54;;;;;;;1.52;1.00;;;19.00;99.90;;;;;;5007824;28;20077;-83
2023/09/25 11:58:20;;;;;;;1.17;1.08;;;19.00;99.90;;;;;;5010651;28;20234;-84
2023/09/25 12:00:45;;;;;;;1.20;1.10;;;19.00;99.90;;;;;;5009709;28;20450;-86
2023/09/25 12:03:11;;;;;;;1.30;1.20;;;19.00;99.90;;;;;;5012150;28;20030;-84
2023/09/25 12:05:37;;;;;;;1.20;1.10;;;19.00;99.90;;;;;;5004915;28;20023;-84
2023/09/25 12:08:06;;;;;;;2.38;1.48;;;19.10;99.90;;;;;;5007800;28;20029;-84
2023/09/25 12:10:37;;;;;;;1.52;0.90;;;19.10;99.90;;;;;;5013049;28;20015;-85
2023/09/25 12:13:04;;;;;;;1.60;1.17;;;19.10;99.90;;;;;;5002785;28;20502;-84
2023/09/25 12:15:29;;;;;;;1.45;1.20;;;19.10;99.90;;;;;;5008152;28;20105;-84
2023/09/25 12:17:55;;;;;;;1.52;1.15;;;19.10;99.90;;;;;;5006132;28;20057;-88
2023/09/25 12:20:21;;;;;;;1.38;1.00;;;19.10;99.90;;;;;;5010872;28;20084;-84
2023/09/25 12:22:46;;;;;;;2.05;1.20;;;19.10;99.90;;;;;;5006541;28;20033;-86
2023/09/25 12:25:14;;;;;;;1.30;0.77;;;19.20;99.90;;;;;;5006181;28;20909;-85
2023/09/25 12:27:42;;;;;;;1.73;1.30;;;19.20;99.90;;;;;;5003188;28;20030;-85
2023/09/25 12:30:10;;;;;;;1.15;1.05;;;19.20;99.90;;;;;;5003749;28;20026;-85
2023/09/25 12:32:36;;;;;;;1.55;1.27;;;19.30;99.90;;;;;;5019706;28;20505;-86
2023/09/25 12:35:03;;;;;;;1.00;0.90;;;19.30;99.90;;;;;;5022107;28;20021;-84
2023/09/25 12:37:29;;;;;;;1.88;1.33;;;19.30;99.90;;;;;;5010366;28;20027;-85
2023/09/25 12:39:54;;;;;;;1.90;1.27;;;19.30;99.90;;;;;;5014476;28;20076;-85
2023/09/25 12:42:21;;;;;;;2.53;1.08;;;19.30;99.90;;;;;;5016179;28;20057;-84
2023/09/25 12:44:46;;;;;;;1.58;1.20;;;19.30;99.90;;;;;;5012509;28;20027;-84